sensor_id;sensor_type;location;lat;lon;timestamp;temperature;humidity
8820;DHT22;4446;50.876;4.736;2023-09-19T00:00:08;14.70;99.90
8820;DHT22;4446;50.876;4.736;2023-09-19T00:02:35;14.80;99.90
8820;DHT22;4446;50.876;4.736;2023-09-19T00:05:05;14.70;99.90
8820;DHT22;4446;50.876;4.736;2023-09-19T00:07:33;14.70;99.90
8820;DHT22;4446;50.876;4.736;2023-09-19T00:10:02;14.70;99.90
8820;DHT22;4446;50.876;4.736;2023-09-19T00:12:30;14.70;99.90
8820;DHT22;4446;50.876;4.736;2023-09-19T00:14:58;14.70;99.90
8820;DHT22;4446;50.876;4.736;2023-09-19T00:17:28;14.70;99.90
8820;DHT22;4446;50.876;4.736;2023-09-19T00:19:57;14.80;99.90
8820;DHT22;4446;50.876;4.736;2023-09-19T00:22:24;14.80;99.90
8820;DHT22;4446;50.876;4.736;2023-09-19T00:24:52;14.80;99.90
8820;DHT22;4446;50.876;4.736;2023-09-19T00:27:20;14.90;99.90
8820;DHT22;4446;50.876;4.736;2023-09-19T00:29:48;14.90;99.90
8820;DHT22;4446;50.876;4.736;2023-09-19T00:32:15;15.00;99.90
8820;DHT22;4446;50.876;4.736;2023-09-19T00:34:43;15.00;99.90
8820;DHT22;4446;50.876;4.736;2023-09-19T00:37:10;14.90;99.90
8820;DHT22;4446;50.876;4.736;2023-09-19T00:39:38;14.90;99.90
8820;DHT22;4446;50.876;4.736;2023-09-19T00:42:06;14.90;99.90
8820;DHT22;4446;50.876;4.736;2023-09-19T00:44:33;14.90;99.90
8820;DHT22;4446;50.876;4.736;2023-09-19T00:47:03;14.80;99.90
8820;DHT22;4446;50.876;4.736;2023-09-19T00:49:30;14.80;99.90
8820;DHT22;4446;50.876;4.736;2023-09-19T00:52:00;14.80;99.90
8820;DHT22;4446;50.876;4.736;2023-09-19T00:54:27;14.80;99.90
8820;DHT22;4446;50.876;4.736;2023-09-19T00:56:55;14.80;99.90
8820;DHT22;4446;50.876;4.736;2023-09-19T00:59:22;14.70;99.90
8820;DHT22;4446;50.876;4.736;2023-09-19T01:01:50;14.70;99.90
8820;DHT22;4446;50.876;4.736;2023-09-19T01:04:19;14.70;99.90
8820;DHT22;4446;50.876;4.736;2023-09-19T01:06:46;14.60;99.90
8820;DHT22;4446;50.876;4.736;2023-09-19T01:09:19;14.70;99.90
8820;DHT22;4446;50.876;4.736;2023-09-19T01:11:49;14.60;99.90
8820;DHT22;4446;50.876;4.736;2023-09-19T01:14:25;14.60;99.90
8820;DHT22;4446;50.876;4.736;2023-09-19T01:17:00;14.60;99.90
8820;DHT22;4446;50.876;4.736;2023-09-19T01:19:58;14.50;99.90
8820;DHT22;4446;50.876;4.736;2023-09-19T01:22:36;14.50;99.90
8820;DHT22;4446;50.876;4.736;2023-09-19T01:25:33;14.40;99.90
8820;DHT22;4446;50.876;4.736;2023-09-19T01:28:14;14.30;99.90
8820;DHT22;4446;50.876;4.736;2023-09-19T01:30:46;14.30;99.90
8820;DHT22;4446;50.876;4.736;2023-09-19T01:33:15;14.30;99.90
8820;DHT22;4446;50.876;4.736;2023-09-19T01:35:43;14.20;99.90
8820;DHT22;4446;50.876;4.736;2023-09-19T01:38:10;14.20;99.90
8820;DHT22;4446;50.876;4.736;2023-09-19T01:40:42;14.20;99.90
8820;DHT22;4446;50.876;4.736;2023-09-19T01:43:15;14.10;99.90
8820;DHT22;4446;50.876;4.736;2023-09-19T01:45:51;14.10;99.90
8820;DHT22;4446;50.876;4.736;2023-09-19T01:48:23;14.00;99.90
8820;DHT22;4446;50.876;4.736;2023-09-19T01:50:56;14.00;99.90
8820;DHT22;4446;50.876;4.736;2023-09-19T01:53:27;14.00;99.90
8820;DHT22;4446;50.876;4.736;2023-09-19T01:55:57;14.00;99.90
8820;DHT22;4446;50.876;4.736;2023-09-19T01:58:29;14.00;99.90
8820;DHT22;4446;50.876;4.736;2023-09-19T02:01:01;13.90;99.90
8820;DHT22;4446;50.876;4.736;2023-09-19T02:03:32;13.90;99.90
8820;DHT22;4446;50.876;4.736;2023-09-19T02:06:00;13.90;99.90
8820;DHT22;4446;50.876;4.736;2023-09-19T02:08:31;13.90;99.90
8820;DHT22;4446;50.876;4.736;2023-09-19T02:10:59;13.90;99.90
8820;DHT22;4446;50.876;4.736;2023-09-19T02:13:26;13.90;99.90
8820;DHT22;4446;50.876;4.736;2023-09-19T02:15:53;13.90;99.90
8820;DHT22;4446;50.876;4.736;2023-09-19T02:18:22;13.90;99.90
8820;DHT22;4446;50.876;4.736;2023-09-19T02:20:50;13.90;99.90
8820;DHT22;4446;50.876;4.736;2023-09-19T02:23:18;14.00;99.90
8820;DHT22;4446;50.876;4.736;2023-09-19T02:25:52;13.90;99.90
8820;DHT22;4446;50.876;4.736;2023-09-19T02:28:19;14.00;99.90
8820;DHT22;4446;50.876;4.736;2023-09-19T02:30:48;13.90;99.90
8820;DHT22;4446;50.876;4.736;2023-09-19T02:33:15;13.90;99.90
8820;DHT22;4446;50.876;4.736;2023-09-19T02:35:44;13.90;99.90
8820;DHT22;4446;50.876;4.736;2023-09-19T02:38:11;13.90;99.90
8820;DHT22;4446;50.876;4.736;2023-09-19T02:40:39;14.10;99.90
8820;DHT22;4446;50.876;4.736;2023-09-19T02:43:06;14.10;99.90
8820;DHT22;4446;50.876;4.736;2023-09-19T02:45:34;14.10;99.90
8820;DHT22;4446;50.876;4.736;2023-09-19T02:48:02;14.10;99.90
8820;DHT22;4446;50.876;4.736;2023-09-19T02:50:29;14.20;99.90
8820;DHT22;4446;50.876;4.736;2023-09-19T02:52:58;14.20;99.90
8820;DHT22;4446;50.876;4.736;2023-09-19T02:55:25;14.20;99.90
8820;DHT22;4446;50.876;4.736;2023-09-19T02:57:53;14.30;99.90
8820;DHT22;4446;50.876;4.736;2023-09-19T03:00:22;14.40;99.90
8820;DHT22;4446;50.876;4.736;2023-09-19T03:02:50;14.40;99.90
8820;DHT22;4446;50.876;4.736;2023-09-19T03:05:17;14.50;99.90
8820;DHT22;4446;50.876;4.736;2023-09-19T03:07:47;14.50;99.90
8820;DHT22;4446;50.876;4.736;2023-09-19T03:10:17;14.60;99.90
8820;DHT22;4446;50.876;4.736;2023-09-19T03:12:45;14.60;99.90
8820;DHT22;4446;50.876;4.736;2023-09-19T03:15:13;14.60;99.90
8820;DHT22;4446;50.876;4.736;2023-09-19T03:17:43;14.60;99.90
8820;DHT22;4446;50.876;4.736;2023-09-19T03:20:11;14.60;99.90
8820;DHT22;4446;50.876;4.736;2023-09-19T03:22:39;14.70;99.90
8820;DHT22;4446;50.876;4.736;2023-09-19T03:25:07;14.70;99.90
8820;DHT22;4446;50.876;4.736;2023-09-19T03:27:39;14.70;99.90
8820;DHT22;4446;50.876;4.736;2023-09-19T03:30:07;14.80;99.90
8820;DHT22;4446;50.876;4.736;2023-09-19T03:32:35;14.80;99.90
8820;DHT22;4446;50.876;4.736;2023-09-19T03:35:02;14.70;99.90
8820;DHT22;4446;50.876;4.736;2023-09-19T03:37:31;14.60;99.90
8820;DHT22;4446;50.876;4.736;2023-09-19T03:39:58;14.70;99.90
8820;DHT22;4446;50.876;4.736;2023-09-19T03:42:30;14.70;99.90
8820;DHT22;4446;50.876;4.736;2023-09-19T03:44:58;14.70;99.90
8820;DHT22;4446;50.876;4.736;2023-09-19T03:47:26;14.70;99.90
8820;DHT22;4446;50.876;4.736;2023-09-19T03:49:53;14.80;99.90
8820;DHT22;4446;50.876;4.736;2023-09-19T03:52:20;14.80;99.90
8820;DHT22;4446;50.876;4.736;2023-09-19T03:54:47;14.80;99.90
8820;DHT22;4446;50.876;4.736;2023-09-19T03:57:14;14.70;99.90
8820;DHT22;4446;50.876;4.736;2023-09-19T03:59:46;14.50;99.90
8820;DHT22;4446;50.876;4.736;2023-09-19T04:02:15;14.40;99.90
8820;DHT22;4446;50.876;4.736;2023-09-19T04:04:49;14.30;99.90
8820;DHT22;4446;50.876;4.736;2023-09-19T04:07:16;14.10;99.90
8820;DHT22;4446;50.876;4.736;2023-09-19T04:09:44;13.90;99.90
8820;DHT22;4446;50.876;4.736;2023-09-19T04:12:12;13.80;99.90
8820;DHT22;4446;50.876;4.736;2023-09-19T04:14:42;13.70;99.90
8820;DHT22;4446;50.876;4.736;2023-09-19T04:17:09;13.70;99.90
8820;DHT22;4446;50.876;4.736;2023-09-19T04:19:38;13.60;99.90
8820;DHT22;4446;50.876;4.736;2023-09-19T04:22:06;13.50;99.90
8820;DHT22;4446;50.876;4.736;2023-09-19T04:24:34;13.60;99.90
8820;DHT22;4446;50.876;4.736;2023-09-19T04:27:03;13.50;99.90
8820;DHT22;4446;50.876;4.736;2023-09-19T04:29:30;13.50;99.90
8820;DHT22;4446;50.876;4.736;2023-09-19T04:31:57;13.40;99.90
8820;DHT22;4446;50.876;4.736;2023-09-19T04:34:24;13.40;99.90
8820;DHT22;4446;50.876;4.736;2023-09-19T04:36:54;13.40;99.90
8820;DHT22;4446;50.876;4.736;2023-09-19T04:39:24;13.40;99.90
8820;DHT22;4446;50.876;4.736;2023-09-19T04:41:51;13.50;99.90
8820;DHT22;4446;50.876;4.736;2023-09-19T04:44:19;13.50;99.90
8820;DHT22;4446;50.876;4.736;2023-09-19T04:46:46;13.60;99.90
8820;DHT22;4446;50.876;4.736;2023-09-19T04:49:13;13.70;99.90
8820;DHT22;4446;50.876;4.736;2023-09-19T04:51:40;13.80;99.90
8820;DHT22;4446;50.876;4.736;2023-09-19T04:54:09;13.90;99.90
8820;DHT22;4446;50.876;4.736;2023-09-19T04:56:36;13.90;99.90
8820;DHT22;4446;50.876;4.736;2023-09-19T04:59:06;13.80;99.90
8820;DHT22;4446;50.876;4.736;2023-09-19T05:01:33;13.80;99.90
8820;DHT22;4446;50.876;4.736;2023-09-19T05:04:00;13.90;99.90
8820;DHT22;4446;50.876;4.736;2023-09-19T05:06:27;13.80;99.90
8820;DHT22;4446;50.876;4.736;2023-09-19T05:08:54;13.80;99.90
8820;DHT22;4446;50.876;4.736;2023-09-19T05:11:23;13.80;99.90
8820;DHT22;4446;50.876;4.736;2023-09-19T05:13:50;13.80;99.90
8820;DHT22;4446;50.876;4.736;2023-09-19T05:16:18;13.80;99.90
8820;DHT22;4446;50.876;4.736;2023-09-19T05:18:45;13.80;99.90
8820;DHT22;4446;50.876;4.736;2023-09-19T05:21:12;13.70;99.90
8820;DHT22;4446;50.876;4.736;2023-09-19T05:23:39;13.70;99.90
8820;DHT22;4446;50.876;4.736;2023-09-19T05:26:06;13.70;99.90
8820;DHT22;4446;50.876;4.736;2023-09-19T05:28:35;13.70;99.90
8820;DHT22;4446;50.876;4.736;2023-09-19T05:31:03;13.70;99.90
8820;DHT22;4446;50.876;4.736;2023-09-19T05:33:31;13.60;99.90
8820;DHT22;4446;50.876;4.736;2023-09-19T05:35:58;13.70;99.90
8820;DHT22;4446;50.876;4.736;2023-09-19T05:38:26;13.60;99.90
8820;DHT22;4446;50.876;4.736;2023-09-19T05:40:53;13.60;99.90
8820;DHT22;4446;50.876;4.736;2023-09-19T05:43:20;13.70;99.90
8820;DHT22;4446;50.876;4.736;2023-09-19T05:45:48;13.70;99.90
8820;DHT22;4446;50.876;4.736;2023-09-19T05:48:18;13.70;99.90
8820;DHT22;4446;50.876;4.736;2023-09-19T05:50:46;13.70;99.90
8820;DHT22;4446;50.876;4.736;2023-09-19T05:53:14;13.70;99.90
8820;DHT22;4446;50.876;4.736;2023-09-19T05:55:41;13.80;99.90
8820;DHT22;4446;50.876;4.736;2023-09-19T05:58:08;13.80;99.90
8820;DHT22;4446;50.876;4.736;2023-09-19T06:00:39;13.80;99.90
8820;DHT22;4446;50.876;4.736;2023-09-19T06:03:10;13.80;99.90
8820;DHT22;4446;50.876;4.736;2023-09-19T06:05:37;13.90;99.90
8820;DHT22;4446;50.876;4.736;2023-09-19T06:08:07;13.80;99.90
8820;DHT22;4446;50.876;4.736;2023-09-19T06:10:35;13.80;99.90
8820;DHT22;4446;50.876;4.736;2023-09-19T06:13:02;13.80;99.90
8820;DHT22;4446;50.876;4.736;2023-09-19T06:15:31;13.90;99.90
8820;DHT22;4446;50.876;4.736;2023-09-19T06:17:59;14.00;99.90
8820;DHT22;4446;50.876;4.736;2023-09-19T06:20:29;14.10;99.90
8820;DHT22;4446;50.876;4.736;2023-09-19T06:22:56;14.20;99.90
8820;DHT22;4446;50.876;4.736;2023-09-19T06:25:24;14.20;99.90
8820;DHT22;4446;50.876;4.736;2023-09-19T06:27:52;14.20;99.90
8820;DHT22;4446;50.876;4.736;2023-09-19T06:30:20;14.30;99.90
8820;DHT22;4446;50.876;4.736;2023-09-19T06:32:48;14.40;99.90
8820;DHT22;4446;50.876;4.736;2023-09-19T06:35:16;14.40;99.90
8820;DHT22;4446;50.876;4.736;2023-09-19T06:37:44;14.50;99.90
8820;DHT22;4446;50.876;4.736;2023-09-19T06:40:12;14.50;99.90
8820;DHT22;4446;50.876;4.736;2023-09-19T06:42:40;14.60;99.90
8820;DHT22;4446;50.876;4.736;2023-09-19T06:45:08;14.70;99.90
8820;DHT22;4446;50.876;4.736;2023-09-19T06:47:37;14.70;99.90
8820;DHT22;4446;50.876;4.736;2023-09-19T06:50:08;14.70;99.90
8820;DHT22;4446;50.876;4.736;2023-09-19T06:52:39;14.70;99.90
8820;DHT22;4446;50.876;4.736;2023-09-19T06:55:12;14.80;99.90
8820;DHT22;4446;50.876;4.736;2023-09-19T06:57:42;14.80;99.90
8820;DHT22;4446;50.876;4.736;2023-09-19T07:00:11;14.90;99.90
8820;DHT22;4446;50.876;4.736;2023-09-19T07:02:54;14.90;99.90
8820;DHT22;4446;50.876;4.736;2023-09-19T07:05:28;15.00;99.90
8820;DHT22;4446;50.876;4.736;2023-09-19T07:07:55;15.00;99.90
8820;DHT22;4446;50.876;4.736;2023-09-19T07:10:26;15.00;99.90
8820;DHT22;4446;50.876;4.736;2023-09-19T07:12:56;15.00;99.90
8820;DHT22;4446;50.876;4.736;2023-09-19T07:15:24;15.10;99.90
8820;DHT22;4446;50.876;4.736;2023-09-19T07:17:52;15.10;99.90
8820;DHT22;4446;50.876;4.736;2023-09-19T07:20:19;15.10;99.90
8820;DHT22;4446;50.876;4.736;2023-09-19T07:22:47;15.10;99.90
8820;DHT22;4446;50.876;4.736;2023-09-19T07:25:15;15.10;99.90
8820;DHT22;4446;50.876;4.736;2023-09-19T07:27:43;15.10;99.90
8820;DHT22;4446;50.876;4.736;2023-09-19T07:30:11;15.10;99.90
8820;DHT22;4446;50.876;4.736;2023-09-19T07:32:39;15.30;99.90
8820;DHT22;4446;50.876;4.736;2023-09-19T07:35:08;15.40;99.90
8820;DHT22;4446;50.876;4.736;2023-09-19T07:37:35;15.40;99.90
8820;DHT22;4446;50.876;4.736;2023-09-19T07:40:03;15.40;99.90
8820;DHT22;4446;50.876;4.736;2023-09-19T07:42:32;15.50;99.90
8820;DHT22;4446;50.876;4.736;2023-09-19T07:45:02;15.50;99.90
8820;DHT22;4446;50.876;4.736;2023-09-19T07:47:29;15.60;99.90
8820;DHT22;4446;50.876;4.736;2023-09-19T07:49:58;15.60;99.90
8820;DHT22;4446;50.876;4.736;2023-09-19T07:52:27;15.60;99.90
8820;DHT22;4446;50.876;4.736;2023-09-19T07:54:54;15.70;99.90
8820;DHT22;4446;50.876;4.736;2023-09-19T07:57:22;15.60;99.90
8820;DHT22;4446;50.876;4.736;2023-09-19T07:59:50;15.70;99.90
8820;DHT22;4446;50.876;4.736;2023-09-19T08:02:18;15.80;99.90
8820;DHT22;4446;50.876;4.736;2023-09-19T08:04:48;15.90;99.90
8820;DHT22;4446;50.876;4.736;2023-09-19T08:07:15;15.90;99.90
8820;DHT22;4446;50.876;4.736;2023-09-19T08:09:42;16.00;99.90
8820;DHT22;4446;50.876;4.736;2023-09-19T08:12:12;16.10;99.90
8820;DHT22;4446;50.876;4.736;2023-09-19T08:14:39;16.00;99.90
8820;DHT22;4446;50.876;4.736;2023-09-19T08:17:07;16.10;99.90
8820;DHT22;4446;50.876;4.736;2023-09-19T08:19:35;16.10;99.90
8820;DHT22;4446;50.876;4.736;2023-09-19T08:22:06;16.20;99.90
8820;DHT22;4446;50.876;4.736;2023-09-19T08:24:36;16.30;99.90
8820;DHT22;4446;50.876;4.736;2023-09-19T08:27:04;16.40;99.90
8820;DHT22;4446;50.876;4.736;2023-09-19T08:29:34;16.40;99.90
8820;DHT22;4446;50.876;4.736;2023-09-19T08:32:01;16.50;99.90
8820;DHT22;4446;50.876;4.736;2023-09-19T08:34:29;16.60;99.90
8820;DHT22;4446;50.876;4.736;2023-09-19T08:37:00;16.70;99.90
8820;DHT22;4446;50.876;4.736;2023-09-19T08:39:27;16.70;99.90
8820;DHT22;4446;50.876;4.736;2023-09-19T08:42:00;16.80;99.90
8820;DHT22;4446;50.876;4.736;2023-09-19T08:44:28;16.90;99.90
8820;DHT22;4446;50.876;4.736;2023-09-19T08:47:04;17.00;99.90
8820;DHT22;4446;50.876;4.736;2023-09-19T08:49:36;17.00;99.90
8820;DHT22;4446;50.876;4.736;2023-09-19T08:52:19;17.00;99.90
8820;DHT22;4446;50.876;4.736;2023-09-19T08:54:51;17.00;99.90
8820;DHT22;4446;50.876;4.736;2023-09-19T08:57:19;17.10;99.90
8820;DHT22;4446;50.876;4.736;2023-09-19T08:59:49;17.10;99.90
8820;DHT22;4446;50.876;4.736;2023-09-19T09:02:19;17.20;99.90
8820;DHT22;4446;50.876;4.736;2023-09-19T09:04:50;17.20;99.90
8820;DHT22;4446;50.876;4.736;2023-09-19T09:07:21;17.40;99.90
8820;DHT22;4446;50.876;4.736;2023-09-19T09:09:48;17.50;99.90
8820;DHT22;4446;50.876;4.736;2023-09-19T09:12:19;17.50;99.90
8820;DHT22;4446;50.876;4.736;2023-09-19T09:14:46;17.60;99.90
8820;DHT22;4446;50.876;4.736;2023-09-19T09:17:16;17.70;99.90
8820;DHT22;4446;50.876;4.736;2023-09-19T09:19:46;17.90;99.90
8820;DHT22;4446;50.876;4.736;2023-09-19T09:22:13;18.00;99.90
8820;DHT22;4446;50.876;4.736;2023-09-19T09:24:53;18.10;99.90
8820;DHT22;4446;50.876;4.736;2023-09-19T09:27:25;18.30;99.90
8820;DHT22;4446;50.876;4.736;2023-09-19T09:29:53;18.50;99.90
8820;DHT22;4446;50.876;4.736;2023-09-19T09:32:24;18.50;99.90
8820;DHT22;4446;50.876;4.736;2023-09-19T09:34:53;18.40;99.90
8820;DHT22;4446;50.876;4.736;2023-09-19T09:37:21;18.50;99.90
8820;DHT22;4446;50.876;4.736;2023-09-19T09:39:52;18.50;99.90
8820;DHT22;4446;50.876;4.736;2023-09-19T09:42:32;18.60;99.90
8820;DHT22;4446;50.876;4.736;2023-09-19T09:45:18;18.50;99.90
8820;DHT22;4446;50.876;4.736;2023-09-19T09:47:56;18.50;99.90
8820;DHT22;4446;50.876;4.736;2023-09-19T09:50:30;18.50;99.90
8820;DHT22;4446;50.876;4.736;2023-09-19T09:53:22;18.50;99.90
8820;DHT22;4446;50.876;4.736;2023-09-19T09:56:02;18.60;99.90
8820;DHT22;4446;50.876;4.736;2023-09-19T09:58:32;18.60;99.90
8820;DHT22;4446;50.876;4.736;2023-09-19T10:00:59;18.70;99.90
8820;DHT22;4446;50.876;4.736;2023-09-19T10:03:35;18.70;99.90
8820;DHT22;4446;50.876;4.736;2023-09-19T10:06:06;18.70;99.90
8820;DHT22;4446;50.876;4.736;2023-09-19T10:09:01;18.80;99.90
8820;DHT22;4446;50.876;4.736;2023-09-19T10:11:45;18.80;99.90
8820;DHT22;4446;50.876;4.736;2023-09-19T10:14:15;18.70;99.90
8820;DHT22;4446;50.876;4.736;2023-09-19T10:16:46;18.60;99.90
8820;DHT22;4446;50.876;4.736;2023-09-19T10:19:16;18.50;99.90
8820;DHT22;4446;50.876;4.736;2023-09-19T10:21:48;18.50;99.90
8820;DHT22;4446;50.876;4.736;2023-09-19T10:24:18;18.40;99.90
8820;DHT22;4446;50.876;4.736;2023-09-19T10:26:47;18.40;99.90
8820;DHT22;4446;50.876;4.736;2023-09-19T10:29:17;18.40;99.90
8820;DHT22;4446;50.876;4.736;2023-09-19T10:31:47;18.50;99.90
8820;DHT22;4446;50.876;4.736;2023-09-19T10:34:17;18.50;99.90
8820;DHT22;4446;50.876;4.736;2023-09-19T10:36:45;18.50;99.90
8820;DHT22;4446;50.876;4.736;2023-09-19T10:39:15;18.50;99.90
8820;DHT22;4446;50.876;4.736;2023-09-19T10:41:49;18.60;99.90
8820;DHT22;4446;50.876;4.736;2023-09-19T10:44:21;18.70;99.90
8820;DHT22;4446;50.876;4.736;2023-09-19T10:46:51;18.60;99.90
8820;DHT22;4446;50.876;4.736;2023-09-19T10:49:19;18.70;99.90
8820;DHT22;4446;50.876;4.736;2023-09-19T10:51:49;18.80;99.90
8820;DHT22;4446;50.876;4.736;2023-09-19T10:54:18;18.80;99.90
8820;DHT22;4446;50.876;4.736;2023-09-19T10:56:51;19.00;99.90
8820;DHT22;4446;50.876;4.736;2023-09-19T10:59:19;19.00;99.90
8820;DHT22;4446;50.876;4.736;2023-09-19T11:01:47;18.90;99.90
8820;DHT22;4446;50.876;4.736;2023-09-19T11:04:37;18.90;99.90
8820;DHT22;4446;50.876;4.736;2023-09-19T11:07:06;18.90;99.90
8820;DHT22;4446;50.876;4.736;2023-09-19T11:09:47;19.10;99.90
8820;DHT22;4446;50.876;4.736;2023-09-19T11:12:50;19.10;99.90
8820;DHT22;4446;50.876;4.736;2023-09-19T11:16:02;19.20;99.90
8820;DHT22;4446;50.876;4.736;2023-09-19T11:18:52;19.30;99.90
8820;DHT22;4446;50.876;4.736;2023-09-19T11:21:38;19.50;99.90
8820;DHT22;4446;50.876;4.736;2023-09-19T11:24:28;19.60;99.90
8820;DHT22;4446;50.876;4.736;2023-09-19T11:27:13;19.70;99.90
8820;DHT22;4446;50.876;4.736;2023-09-19T11:29:44;19.90;99.90
8820;DHT22;4446;50.876;4.736;2023-09-19T11:32:11;19.90;99.90
8820;DHT22;4446;50.876;4.736;2023-09-19T11:34:46;20.10;99.90
8820;DHT22;4446;50.876;4.736;2023-09-19T11:40:37;20.00;99.90
8820;DHT22;4446;50.876;4.736;2023-09-19T11:43:32;20.20;99.90
8820;DHT22;4446;50.876;4.736;2023-09-19T11:46:05;20.40;99.90
8820;DHT22;4446;50.876;4.736;2023-09-19T11:48:33;20.60;99.90
8820;DHT22;4446;50.876;4.736;2023-09-19T11:51:17;20.60;99.90
8820;DHT22;4446;50.876;4.736;2023-09-19T11:53:49;20.40;99.90
8820;DHT22;4446;50.876;4.736;2023-09-19T11:56:18;20.50;99.90
8820;DHT22;4446;50.876;4.736;2023-09-19T11:58:46;20.60;99.90
8820;DHT22;4446;50.876;4.736;2023-09-19T12:01:22;20.70;99.90
8820;DHT22;4446;50.876;4.736;2023-09-19T12:03:53;20.80;99.90
8820;DHT22;4446;50.876;4.736;2023-09-19T12:06:23;20.90;99.90
8820;DHT22;4446;50.876;4.736;2023-09-19T12:08:50;21.00;99.90
8820;DHT22;4446;50.876;4.736;2023-09-19T12:11:21;21.10;99.90
8820;DHT22;4446;50.876;4.736;2023-09-19T12:13:49;21.00;99.90
8820;DHT22;4446;50.876;4.736;2023-09-19T12:16:19;20.90;99.90
8820;DHT22;4446;50.876;4.736;2023-09-19T12:18:49;20.80;99.90
8820;DHT22;4446;50.876;4.736;2023-09-19T12:21:27;20.70;99.90
8820;DHT22;4446;50.876;4.736;2023-09-19T12:23:58;20.50;99.90
8820;DHT22;4446;50.876;4.736;2023-09-19T12:26:28;20.60;99.90
8820;DHT22;4446;50.876;4.736;2023-09-19T12:28:55;20.60;99.90
8820;DHT22;4446;50.876;4.736;2023-09-19T12:31:24;20.50;99.90
8820;DHT22;4446;50.876;4.736;2023-09-19T12:33:55;20.40;99.90
8820;DHT22;4446;50.876;4.736;2023-09-19T12:36:24;20.40;99.90
8820;DHT22;4446;50.876;4.736;2023-09-19T12:38:55;20.30;99.90
8820;DHT22;4446;50.876;4.736;2023-09-19T12:41:24;20.20;99.90
8820;DHT22;4446;50.876;4.736;2023-09-19T12:43:52;20.00;99.90
8820;DHT22;4446;50.876;4.736;2023-09-19T12:46:20;20.10;99.90
8820;DHT22;4446;50.876;4.736;2023-09-19T12:49:15;20.20;99.90
8820;DHT22;4446;50.876;4.736;2023-09-19T12:51:44;20.30;99.90
8820;DHT22;4446;50.876;4.736;2023-09-19T12:54:12;20.30;99.90
8820;DHT22;4446;50.876;4.736;2023-09-19T12:56:45;20.30;99.90
8820;DHT22;4446;50.876;4.736;2023-09-19T12:59:16;20.30;99.90
8820;DHT22;4446;50.876;4.736;2023-09-19T13:01:44;20.30;99.90
8820;DHT22;4446;50.876;4.736;2023-09-19T13:04:17;20.50;99.90
8820;DHT22;4446;50.876;4.736;2023-09-19T13:06:46;20.60;99.90
8820;DHT22;4446;50.876;4.736;2023-09-19T13:09:15;20.90;99.90
8820;DHT22;4446;50.876;4.736;2023-09-19T13:11:46;21.10;99.90
8820;DHT22;4446;50.876;4.736;2023-09-19T13:14:18;21.30;99.90
8820;DHT22;4446;50.876;4.736;2023-09-19T13:16:56;21.30;99.90
8820;DHT22;4446;50.876;4.736;2023-09-19T13:19:42;21.30;99.90
8820;DHT22;4446;50.876;4.736;2023-09-19T13:22:39;21.00;99.90
8820;DHT22;4446;50.876;4.736;2023-09-19T13:25:08;21.20;99.90
8820;DHT22;4446;50.876;4.736;2023-09-19T13:27:40;21.10;99.90
8820;DHT22;4446;50.876;4.736;2023-09-19T13:30:09;21.00;99.90
8820;DHT22;4446;50.876;4.736;2023-09-19T13:32:37;20.80;99.90
8820;DHT22;4446;50.876;4.736;2023-09-19T13:35:07;20.90;99.90
8820;DHT22;4446;50.876;4.736;2023-09-19T13:37:37;20.80;99.90
8820;DHT22;4446;50.876;4.736;2023-09-19T13:40:08;20.70;99.90
8820;DHT22;4446;50.876;4.736;2023-09-19T13:42:36;20.60;99.90
8820;DHT22;4446;50.876;4.736;2023-09-19T13:45:04;20.50;99.90
8820;DHT22;4446;50.876;4.736;2023-09-19T13:47:32;20.60;99.90
8820;DHT22;4446;50.876;4.736;2023-09-19T13:49:59;20.50;99.90
8820;DHT22;4446;50.876;4.736;2023-09-19T13:52:29;20.50;99.90
8820;DHT22;4446;50.876;4.736;2023-09-19T13:54:57;20.40;99.90
8820;DHT22;4446;50.876;4.736;2023-09-19T13:57:24;20.50;99.90
8820;DHT22;4446;50.876;4.736;2023-09-19T13:59:51;20.50;99.90
8820;DHT22;4446;50.876;4.736;2023-09-19T14:02:20;20.50;99.90
8820;DHT22;4446;50.876;4.736;2023-09-19T14:04:48;20.40;99.90
8820;DHT22;4446;50.876;4.736;2023-09-19T14:07:15;20.40;99.90
8820;DHT22;4446;50.876;4.736;2023-09-19T14:09:44;20.50;99.90
8820;DHT22;4446;50.876;4.736;2023-09-19T14:12:13;20.50;99.90
8820;DHT22;4446;50.876;4.736;2023-09-19T14:14:41;20.70;99.90
8820;DHT22;4446;50.876;4.736;2023-09-19T14:17:08;20.80;99.90
8820;DHT22;4446;50.876;4.736;2023-09-19T14:19:35;20.90;99.90
8820;DHT22;4446;50.876;4.736;2023-09-19T14:22:02;21.00;99.90
8820;DHT22;4446;50.876;4.736;2023-09-19T14:24:33;20.90;99.90
8820;DHT22;4446;50.876;4.736;2023-09-19T14:27:01;20.70;99.90
8820;DHT22;4446;50.876;4.736;2023-09-19T14:29:30;20.60;99.90
8820;DHT22;4446;50.876;4.736;2023-09-19T14:31:57;20.30;99.90
8820;DHT22;4446;50.876;4.736;2023-09-19T14:34:24;20.20;99.90
8820;DHT22;4446;50.876;4.736;2023-09-19T14:36:51;20.30;99.90
8820;DHT22;4446;50.876;4.736;2023-09-19T14:39:20;20.30;99.90
8820;DHT22;4446;50.876;4.736;2023-09-19T14:41:47;20.40;99.90
8820;DHT22;4446;50.876;4.736;2023-09-19T14:44:17;20.40;99.90
8820;DHT22;4446;50.876;4.736;2023-09-19T14:46:48;20.60;99.90
8820;DHT22;4446;50.876;4.736;2023-09-19T14:49:15;20.90;99.90
8820;DHT22;4446;50.876;4.736;2023-09-19T14:51:43;21.10;99.90
8820;DHT22;4446;50.876;4.736;2023-09-19T14:54:13;21.20;99.90
8820;DHT22;4446;50.876;4.736;2023-09-19T14:56:43;21.40;99.90
8820;DHT22;4446;50.876;4.736;2023-09-19T14:59:12;21.50;99.90
8820;DHT22;4446;50.876;4.736;2023-09-19T15:01:42;21.40;99.90
8820;DHT22;4446;50.876;4.736;2023-09-19T15:04:10;21.40;99.90
8820;DHT22;4446;50.876;4.736;2023-09-19T15:06:37;21.20;99.90
8820;DHT22;4446;50.876;4.736;2023-09-19T15:09:04;21.00;99.90
8820;DHT22;4446;50.876;4.736;2023-09-19T15:11:34;20.80;99.90
8820;DHT22;4446;50.876;4.736;2023-09-19T15:14:01;20.80;99.90
8820;DHT22;4446;50.876;4.736;2023-09-19T15:16:29;20.60;99.90
8820;DHT22;4446;50.876;4.736;2023-09-19T15:18:59;20.40;99.90
8820;DHT22;4446;50.876;4.736;2023-09-19T15:21:26;20.30;99.90
8820;DHT22;4446;50.876;4.736;2023-09-19T15:23:53;20.10;99.90
8820;DHT22;4446;50.876;4.736;2023-09-19T15:26:21;19.90;99.90
8820;DHT22;4446;50.876;4.736;2023-09-19T15:28:48;20.00;99.90
8820;DHT22;4446;50.876;4.736;2023-09-19T15:31:15;20.00;99.90
8820;DHT22;4446;50.876;4.736;2023-09-19T15:33:42;19.90;99.90
8820;DHT22;4446;50.876;4.736;2023-09-19T15:36:13;19.80;99.90
8820;DHT22;4446;50.876;4.736;2023-09-19T15:38:58;19.80;99.90
8820;DHT22;4446;50.876;4.736;2023-09-19T15:41:27;19.70;99.90
8820;DHT22;4446;50.876;4.736;2023-09-19T15:43:54;19.60;99.90
8820;DHT22;4446;50.876;4.736;2023-09-19T15:46:21;19.60;99.90
8820;DHT22;4446;50.876;4.736;2023-09-19T15:48:48;19.50;99.90
8820;DHT22;4446;50.876;4.736;2023-09-19T15:51:17;19.60;99.90
8820;DHT22;4446;50.876;4.736;2023-09-19T15:53:45;19.60;99.90
8820;DHT22;4446;50.876;4.736;2023-09-19T15:56:13;19.60;99.90
8820;DHT22;4446;50.876;4.736;2023-09-19T15:58:44;19.50;99.90
8820;DHT22;4446;50.876;4.736;2023-09-19T16:01:11;19.40;99.90
8820;DHT22;4446;50.876;4.736;2023-09-19T16:03:41;19.20;99.90
8820;DHT22;4446;50.876;4.736;2023-09-19T16:06:09;19.20;99.90
8820;DHT22;4446;50.876;4.736;2023-09-19T16:08:40;19.30;99.90
8820;DHT22;4446;50.876;4.736;2023-09-19T16:11:07;19.30;99.90
8820;DHT22;4446;50.876;4.736;2023-09-19T16:13:35;19.30;99.90
8820;DHT22;4446;50.876;4.736;2023-09-19T16:16:02;19.40;99.90
8820;DHT22;4446;50.876;4.736;2023-09-19T16:18:30;19.40;99.90
8820;DHT22;4446;50.876;4.736;2023-09-19T16:21:02;19.30;99.90
8820;DHT22;4446;50.876;4.736;2023-09-19T16:23:29;19.30;99.90